Time;durP1;ratioP1;P1;durP2;ratioP2;P2;SDS_P1;SDS_P2;PMS_P1;PMS_P2;Temp;Humidity;BMP_temperature;BMP_pressure;BME280_temperature;BME280_humidity;BME280_pressure;Samples;Min_cycle;Max_cycle;Signal;HPM_P1;HPM_P2
2022/08/24 00:00:34;;;;;;;6.78;4.03;;;;;;;;;;2074108;28;20496;-94
2022/08/24 00:01:34;;;;;;;7.57;4.30;;;;;;;;;;2073806;28;20034;-95
2022/08/24 00:02:35;;;;;;;5.03;3.83;;;;;;;;;;2074054;28;20060;-95
2022/08/24 00:03:36;;;;;;;6.20;4.38;;;;;;;;;;2081605;28;20420;-95
2022/08/24 00:04:37;;;;;;;7.38;4.00;;;;;;;;;;2082106;28;20472;-96
2022/08/24 00:05:37;;;;;;;8.57;4.57;;;;;;;;;;2074762;28;20475;-95
2022/08/24 00:06:38;;;;;;;6.30;4.35;;;;;;;;;;2086412;28;20013;-94
2022/08/24 00:07:38;;;;;;;7.03;3.75;;;;;;;;;;2092534;28;20017;-94
2022/08/24 00:08:40;;;;;;;6.76;3.76;;;;;;;;;;1730323;28;10186186;-94
2022/08/24 00:09:41;;;;;;;7.10;4.10;;;;;;;;;;2079440;28;20402;-94
2022/08/24 00:10:41;;;;;;;6.47;3.80;;;;;;;;;;2073702;28;20068;-94
2022/08/24 00:11:42;;;;;;;7.43;3.83;;;;;;;;;;2082189;28;20033;-94
2022/08/24 00:12:42;;;;;;;8.00;4.47;;;;;;;;;;2073834;28;20058;-94
2022/08/24 00:13:43;;;;;;;6.88;4.88;;;;;;;;;;2073925;28;20026;-94
2022/08/24 00:14:44;;;;;;;5.90;4.22;;;;;;;;;;2074016;28;20049;-95
2022/08/24 00:15:45;;;;;;;5.60;4.65;;;;;;;;;;2082046;28;20017;-94
2022/08/24 00:16:46;;;;;;;9.05;3.85;;;;;;;;;;2082030;28;20026;-95
2022/08/24 00:17:46;;;;;;;7.22;4.60;;;;;;;;;;2074134;28;20049;-95
2022/08/24 00:18:50;;;;;;;5.30;4.10;;;;;;;;;;2074564;28;20520;-96
2022/08/24 00:19:51;;;;;;;4.47;3.58;;;;;;;;;;2074590;28;20021;-96
2022/08/24 00:20:52;;;;;;;7.03;4.32;;;;;;;;;;2074121;28;20072;-96
2022/08/24 00:21:57;;;;;;;6.65;4.10;;;;;;;;;;1848862;28;10257291;-96
2022/08/24 00:22:58;;;;;;;6.72;4.35;;;;;;;;;;2074334;28;20274;-96
2022/08/24 00:24:01;;;;;;;9.00;3.97;;;;;;;;;;2074224;28;20043;-96
2022/08/24 00:25:02;;;;;;;6.32;4.40;;;;;;;;;;2080462;28;20592;-89
2022/08/24 00:26:04;;;;;;;4.60;4.10;;;;;;;;;;2081098;28;20177;-89
2022/08/24 00:27:05;;;;;;;7.28;4.47;;;;;;;;;;2081039;28;20403;-90
2022/08/24 00:28:06;;;;;;;8.55;4.20;;;;;;;;;;2081501;28;20021;-90
2022/08/24 00:29:06;;;;;;;5.70;4.20;;;;;;;;;;2080573;28;20049;-89
2022/08/24 00:30:11;;;;;;;6.35;4.10;;;;;;;;;;2080311;28;20021;-90
2022/08/24 00:31:11;;;;;;;7.47;4.35;;;;;;;;;;2072656;28;20516;-90
2022/08/24 00:32:12;;;;;;;7.28;4.55;;;;;;;;;;2072324;28;20033;-89
2022/08/24 00:33:12;;;;;;;6.88;4.50;;;;;;;;;;2080427;28;20476;-90
2022/08/24 00:34:13;;;;;;;6.68;4.25;;;;;;;;;;2080625;28;20021;-89
2022/08/24 00:35:17;;;;;;;8.23;4.75;;;;;;;;;;2072382;28;20560;-89
2022/08/24 00:36:20;;;;;;;5.72;4.30;;;;;;;;;;2083635;28;20030;-91
2022/08/24 00:37:21;;;;;;;6.15;4.07;;;;;;;;;;2082481;28;20022;-88
2022/08/24 00:38:21;;;;;;;5.80;4.30;;;;;;;;;;2081931;28;20107;-89
2022/08/24 00:39:22;;;;;;;7.35;4.80;;;;;;;;;;2080238;28;20116;-90
2022/08/24 00:40:26;;;;;;;6.28;4.00;;;;;;;;;;1736747;28;10000515;-89
2022/08/24 00:41:28;;;;;;;6.40;4.90;;;;;;;;;;2088686;28;20029;-90
2022/08/24 00:42:28;;;;;;;6.80;4.70;;;;;;;;;;2080256;28;20025;-89
2022/08/24 00:43:30;;;;;;;7.93;4.88;;;;;;;;;;2080323;28;20432;-90
2022/08/24 00:44:30;;;;;;;7.38;5.15;;;;;;;;;;2072412;28;20061;-90
2022/08/24 00:45:36;;;;;;;6.57;4.63;;;;;;;;;;1719472;28;10400726;-88
2022/08/24 00:46:58;;;;;;;6.00;4.82;;;;;;;;;;2080850;28;20408;-90
2022/08/24 00:48:03;;;;;;;7.05;4.50;;;;;;;;;;2081211;28;20100;-90
2022/08/24 00:49:10;;;;;;;6.85;5.10;;;;;;;;;;2080423;28;20017;-90
2022/08/24 00:50:26;;;;;;;9.48;4.97;;;;;;;;;;2080367;28;20079;-90
2022/08/24 00:51:33;;;;;;;9.30;5.10;;;;;;;;;;2074462;28;20439;-88
2022/08/24 00:52:51;;;;;;;8.38;5.18;;;;;;;;;;2073184;28;20041;-90
2022/08/24 00:54:11;;;;;;;8.46;5.34;;;;;;;;;;1994264;28;10372729;-90
2022/08/24 00:55:19;;;;;;;8.85;6.00;;;;;;;;;;2074419;28;20337;-90
2022/08/24 00:56:26;;;;;;;9.13;6.63;;;;;;;;;;2072979;28;20030;-90
2022/08/24 00:57:31;;;;;;;9.20;6.75;;;;;;;;;;2080049;28;20022;-90
2022/08/24 00:58:57;;;;;;;8.05;6.43;;;;;;;;;;2080064;28;20025;-90
2022/08/24 01:00:03;;;;;;;11.32;7.03;;;;;;;;;;2075353;28;20082;-90
2022/08/24 01:01:06;;;;;;;12.00;7.07;;;;;;;;;;2072485;28;20061;-89
2022/08/24 01:02:12;;;;;;;8.27;6.30;;;;;;;;;;2072238;28;20448;-89
2022/08/24 01:03:13;;;;;;;11.03;7.23;;;;;;;;;;1724934;28;10242559;-89
2022/08/24 01:04:20;;;;;;;9.88;7.05;;;;;;;;;;2081001;28;20341;-89
2022/08/24 01:05:21;;;;;;;10.20;7.28;;;;;;;;;;2080194;28;20575;-90
2022/08/24 01:06:22;;;;;;;9.75;6.72;;;;;;;;;;2072027;28;20032;-89
2022/08/24 01:07:27;;;;;;;10.82;6.30;;;;;;;;;;2071933;28;20523;-90
2022/08/24 01:08:28;;;;;;;11.02;7.15;;;;;;;;;;2080209;28;20018;-89
2022/08/24 01:09:29;;;;;;;9.43;6.88;;;;;;;;;;2080825;28;20068;-89
2022/08/24 01:10:34;;;;;;;10.20;7.28;;;;;;;;;;2080814;28;20104;-89
2022/08/24 01:11:34;;;;;;;10.25;7.25;;;;;;;;;;2080908;28;20021;-89
2022/08/24 01:12:37;;;;;;;11.40;7.57;;;;;;;;;;2080186;28;20443;-90
2022/08/24 01:13:39;;;;;;;11.02;7.47;;;;;;;;;;2072268;28;20026;-89
2022/08/24 01:14:40;;;;;;;9.57;6.63;;;;;;;;;;2071947;28;20026;-89
2022/08/24 01:15:44;;;;;;;14.23;7.50;;;;;;;;;;2071742;28;20014;-89
2022/08/24 01:19:36;;;;;;;10.38;6.75;;;;;;;;;;2080926;28;20021;-89
2022/08/24 01:20:36;;;;;;;9.93;6.88;;;;;;;;;;2080046;28;20492;-90
2022/08/24 01:21:44;;;;;;;11.43;6.70;;;;;;;;;;2071837;28;20033;-89
2022/08/24 01:23:09;;;;;;;11.32;7.20;;;;;;;;;;2080170;28;20379;-90
2022/08/24 01:24:11;;;;;;;11.52;7.35;;;;;;;;;;2079769;28;20452;-87
2022/08/24 01:25:12;;;;;;;12.75;7.00;;;;;;;;;;2080174;28;20455;-88
2022/08/24 01:26:20;;;;;;;10.77;6.53;;;;;;;;;;2080097;28;20120;-89
2022/08/24 01:27:22;;;;;;;13.32;7.15;;;;;;;;;;2079859;28;20048;-89
2022/08/24 01:28:23;;;;;;;11.32;7.07;;;;;;;;;;2079823;28;20108;-89
2022/08/24 01:29:27;;;;;;;12.00;7.25;;;;;;;;;;2071743;28;20022;-89
2022/08/24 01:30:28;;;;;;;10.27;6.32;;;;;;;;;;2072188;28;20183;-89
2022/08/24 01:31:29;;;;;;;10.55;6.18;;;;;;;;;;2079880;28;20056;-88
2022/08/24 01:32:30;;;;;;;11.32;7.28;;;;;;;;;;2080326;28;20043;-88
2022/08/24 01:33:31;;;;;;;12.77;6.60;;;;;;;;;;1712706;28;10397638;-90
2022/08/24 01:34:32;;;;;;;10.63;6.47;;;;;;;;;;2071790;28;20302;-89
2022/08/24 01:35:35;;;;;;;10.63;5.85;;;;;;;;;;2079991;28;20021;-90
2022/08/24 01:36:40;;;;;;;10.57;6.25;;;;;;;;;;2079659;28;20057;-89
2022/08/24 01:37:41;;;;;;;14.88;7.00;;;;;;;;;;2072367;28;20112;-90
2022/08/24 01:38:41;;;;;;;10.00;6.05;;;;;;;;;;2071602;28;20108;-90
2022/08/24 01:39:44;;;;;;;9.88;5.90;;;;;;;;;;2080588;28;20492;-90
2022/08/24 01:40:49;;;;;;;9.80;6.03;;;;;;;;;;2082179;28;20413;-90
2022/08/24 01:41:50;;;;;;;10.38;6.15;;;;;;;;;;2077875;28;20018;-90
2022/08/24 01:42:52;;;;;;;14.30;6.40;;;;;;;;;;2081063;28;20010;-90
2022/08/24 01:43:52;;;;;;;10.07;6.28;;;;;;;;;;2087244;28;20048;-89
2022/08/24 01:44:53;;;;;;;13.55;6.80;;;;;;;;;;2080591;28;20492;-89
2022/08/24 01:45:54;;;;;;;11.38;5.88;;;;;;;;;;2080002;28;20032;-89
2022/08/24 01:46:55;;;;;;;8.45;5.70;;;;;;;;;;2071314;28;20109;-89
2022/08/24 01:47:58;;;;;;;11.38;6.88;;;;;;;;;;2080106;28;20025;-90
2022/08/24 01:48:59;;;;;;;7.78;5.68;;;;;;;;;;2080432;28;20025;-89
2022/08/24 01:50:00;;;;;;;9.23;6.07;;;;;;;;;;2079935;28;20022;-90
2022/08/24 01:51:01;;;;;;;11.77;6.00;;;;;;;;;;2071869;28;20133;-88
2022/08/24 01:52:05;;;;;;;10.13;5.05;;;;;;;;;;2080180;28;20021;-90
2022/08/24 01:53:06;;;;;;;11.60;5.70;;;;;;;;;;2080168;28;20068;-90
2022/08/24 01:54:07;;;;;;;10.18;5.68;;;;;;;;;;2080226;28;20487;-90
2022/08/24 01:55:11;;;;;;;11.60;5.85;;;;;;;;;;2080029;28;20033;-90
2022/08/24 01:56:11;;;;;;;8.38;5.25;;;;;;;;;;2071864;28;20036;-89
2022/08/24 01:57:12;;;;;;;9.27;5.57;;;;;;;;;;2071514;28;20072;-89
2022/08/24 01:58:13;;;;;;;8.15;5.07;;;;;;;;;;2080123;28;20029;-90
2022/08/24 01:59:14;;;;;;;9.85;5.30;;;;;;;;;;2079806;28;20029;-89
2022/08/24 02:00:17;;;;;;;10.40;5.38;;;;;;;;;;2071804;28;20030;-89
2022/08/24 02:01:17;;;;;;;8.35;5.68;;;;;;;;;;2080139;28;20028;-89
2022/08/24 02:02:23;;;;;;;7.70;5.22;;;;;;;;;;2080162;28;20495;-89
2022/08/24 02:03:24;;;;;;;9.63;5.57;;;;;;;;;;2072569;28;20030;-91
2022/08/24 02:04:24;;;;;;;8.65;5.60;;;;;;;;;;2079984;28;20044;-90
2022/08/24 02:05:25;;;;;;;7.55;5.50;;;;;;;;;;2080832;28;20101;-92
2022/08/24 02:06:26;;;;;;;8.27;5.03;;;;;;;;;;2079903;28;20025;-91
2022/08/24 02:07:28;;;;;;;10.38;5.85;;;;;;;;;;2079848;28;20032;-90
2022/08/24 02:08:28;;;;;;;10.63;4.93;;;;;;;;;;2080059;28;20481;-92
2022/08/24 02:09:29;;;;;;;8.38;5.32;;;;;;;;;;2071750;28;20022;-92
2022/08/24 02:10:30;;;;;;;13.80;5.97;;;;;;;;;;2088467;28;20573;-92
2022/08/24 02:11:31;;;;;;;7.97;5.00;;;;;;;;;;2096708;28;20040;-92
2022/08/24 02:12:34;;;;;;;7.82;4.80;;;;;;;;;;2079956;28;20094;-91
2022/08/24 02:13:36;;;;;;;8.65;5.35;;;;;;;;;;2072139;28;20026;-91
2022/08/24 02:14:37;;;;;;;9.02;5.20;;;;;;;;;;2072128;28;20528;-91
2022/08/24 02:15:41;;;;;;;8.90;5.53;;;;;;;;;;2080201;28;20021;-91
2022/08/24 02:16:44;;;;;;;8.20;5.20;;;;;;;;;;2080277;28;20021;-91
2022/08/24 02:17:44;;;;;;;8.52;5.15;;;;;;;;;;2073781;28;20099;-96
2022/08/24 02:18:45;;;;;;;8.02;5.35;;;;;;;;;;2082341;28;20021;-96
2022/08/24 02:19:48;;;;;;;7.78;5.18;;;;;;;;;;2082564;28;20020;-96
2022/08/24 02:20:49;;;;;;;8.95;5.78;;;;;;;;;;2081764;28;20040;-96
2022/08/24 02:21:49;;;;;;;9.35;5.43;;;;;;;;;;2081530;28;20022;-96
2022/08/24 02:22:51;;;;;;;8.30;5.35;;;;;;;;;;2073280;28;20412;-96
2022/08/24 02:23:51;;;;;;;8.40;5.47;;;;;;;;;;2074351;28;20018;-96
2022/08/24 02:24:53;;;;;;;7.68;5.38;;;;;;;;;;2082046;28;20060;-96
2022/08/24 02:25:54;;;;;;;7.65;5.28;;;;;;;;;;2079463;28;20107;-91
2022/08/24 02:26:56;;;;;;;10.98;6.10;;;;;;;;;;2072201;28;20034;-91
2022/08/24 02:27:58;;;;;;;9.35;5.53;;;;;;;;;;2081533;28;20478;-88
2022/08/24 02:28:58;;;;;;;9.95;6.57;;;;;;;;;;2083059;28;20071;-87
2022/08/24 02:29:59;;;;;;;11.25;6.35;;;;;;;;;;2091792;28;20025;-88
2022/08/24 02:31:00;;;;;;;10.15;5.97;;;;;;;;;;2092150;28;20084;-89
2022/08/24 02:32:00;;;;;;;9.00;5.88;;;;;;;;;;2081949;28;20021;-88
2022/08/24 02:33:01;;;;;;;10.82;6.55;;;;;;;;;;2081595;28;20052;-90
2022/08/24 02:34:03;;;;;;;10.35;6.28;;;;;;;;;;2082434;28;20480;-89
2022/08/24 02:35:04;;;;;;;10.10;5.85;;;;;;;;;;2081507;28;20018;-90
2022/08/24 02:36:05;;;;;;;10.25;6.20;;;;;;;;;;2081489;28;20026;-90
2022/08/24 02:37:06;;;;;;;10.98;6.10;;;;;;;;;;2073387;28;20014;-87
2022/08/24 02:38:08;;;;;;;9.00;6.28;;;;;;;;;;2073318;28;20579;-89
2022/08/24 02:39:09;;;;;;;10.85;6.50;;;;;;;;;;2073038;28;20408;-91
2022/08/24 02:40:11;;;;;;;10.57;6.57;;;;;;;;;;2081397;28;20096;-91
2022/08/24 02:41:12;;;;;;;11.35;7.13;;;;;;;;;;2082207;28;20519;-92
2022/08/24 02:42:14;;;;;;;9.70;6.90;;;;;;;;;;2081481;28;20033;-90
2022/08/24 02:43:25;;;;;;;11.22;7.16;;;;;;;;;;2059135;28;10124278;-91
2022/08/24 02:44:25;;;;;;;11.55;6.97;;;;;;;;;;2081522;28;20245;-91
2022/08/24 02:45:26;;;;;;;10.05;6.75;;;;;;;;;;2081394;28;20511;-90
2022/08/24 02:46:28;;;;;;;13.05;7.30;;;;;;;;;;2073122;28;20505;-90
2022/08/24 02:47:29;;;;;;;11.48;6.38;;;;;;;;;;2080976;28;20064;-90
2022/08/24 02:48:29;;;;;;;9.25;5.93;;;;;;;;;;2081418;28;20597;-90
2022/08/24 02:49:30;;;;;;;10.20;6.90;;;;;;;;;;2081350;28;20101;-91
2022/08/24 02:50:30;;;;;;;11.93;7.28;;;;;;;;;;2081110;28;20032;-89
2022/08/24 02:51:32;;;;;;;11.25;6.80;;;;;;;;;;2081631;28;20069;-90
2022/08/24 02:52:34;;;;;;;10.15;6.43;;;;;;;;;;2085298;28;20139;-90
2022/08/24 02:53:35;;;;;;;12.55;7.03;;;;;;;;;;2087571;28;20017;-91
2022/08/24 02:54:35;;;;;;;10.63;7.03;;;;;;;;;;2083691;28;20474;-92
2022/08/24 02:55:38;;;;;;;11.82;7.40;;;;;;;;;;2081233;28;20040;-89
2022/08/24 02:56:38;;;;;;;10.50;7.15;;;;;;;;;;2082544;28;20052;-90
2022/08/24 02:57:39;;;;;;;12.40;6.97;;;;;;;;;;1719305;28;10432183;-90
2022/08/24 02:58:42;;;;;;;12.82;8.15;;;;;;;;;;2073238;28;20101;-90
2022/08/24 02:59:42;;;;;;;11.18;7.07;;;;;;;;;;2080978;28;20364;-89
2022/08/24 03:00:45;;;;;;;12.82;7.22;;;;;;;;;;2081857;28;20026;-90
2022/08/24 03:01:46;;;;;;;13.63;7.10;;;;;;;;;;2081017;28;20052;-88
2022/08/24 03:02:47;;;;;;;13.48;7.45;;;;;;;;;;1716466;28;10306787;-91
2022/08/24 03:03:47;;;;;;;14.25;7.90;;;;;;;;;;2081020;28;20100;-90
2022/08/24 03:04:47;;;;;;;12.93;7.53;;;;;;;;;;2081987;28;20099;-91
2022/08/24 03:05:48;;;;;;;12.00;6.65;;;;;;;;;;2082006;28;20096;-90
2022/08/24 03:06:48;;;;;;;12.80;8.13;;;;;;;;;;2082049;28;20020;-91
2022/08/24 03:07:49;;;;;;;11.60;6.85;;;;;;;;;;2081292;28;20112;-91
2022/08/24 03:08:49;;;;;;;14.20;7.00;;;;;;;;;;2073060;28;20104;-90
2022/08/24 03:09:50;;;;;;;13.70;7.32;;;;;;;;;;2072814;28;20033;-90
2022/08/24 03:10:50;;;;;;;11.65;6.70;;;;;;;;;;2073227;28;20026;-88
2022/08/24 03:11:51;;;;;;;12.15;7.57;;;;;;;;;;2082873;28;20021;-90
2022/08/24 03:12:52;;;;;;;13.98;7.65;;;;;;;;;;2081838;28;20049;-89
2022/08/24 03:13:58;;;;;;;12.20;6.55;;;;;;;;;;2081749;28;20080;-91
2022/08/24 03:14:58;;;;;;;9.73;6.40;;;;;;;;;;2083473;28;20036;-96
2022/08/24 03:16:00;;;;;;;12.93;6.40;;;;;;;;;;2076316;28;20100;-95
2022/08/24 03:17:00;;;;;;;11.02;6.63;;;;;;;;;;2084753;28;20053;-94
2022/08/24 03:18:01;;;;;;;13.25;7.75;;;;;;;;;;2084801;28;20129;-94
2022/08/24 03:19:01;;;;;;;11.48;6.68;;;;;;;;;;2078531;28;20018;-94
2022/08/24 03:20:09;;;;;;;11.52;7.45;;;;;;;;;;2074737;28;20053;-96
2022/08/24 03:21:10;;;;;;;9.98;6.22;;;;;;;;;;2084167;28;20029;-96
2022/08/24 03:22:12;;;;;;;14.35;7.60;;;;;;;;;;2083055;28;20407;-95
2022/08/24 03:23:12;;;;;;;10.23;6.15;;;;;;;;;;2076072;28;20018;-96
2022/08/24 03:24:16;;;;;;;13.02;7.03;;;;;;;;;;2082987;28;20033;-95
2022/08/24 03:25:19;;;;;;;10.77;6.97;;;;;;;;;;2088958;28;20021;-89
2022/08/24 03:26:21;;;;;;;12.10;6.60;;;;;;;;;;1726892;28;10197753;-90
2022/08/24 03:27:22;;;;;;;9.40;6.50;;;;;;;;;;2081142;28;20049;-89
2022/08/24 03:28:23;;;;;;;9.30;6.13;;;;;;;;;;2082424;28;20085;-88
2022/08/24 03:29:24;;;;;;;10.98;6.13;;;;;;;;;;2085012;28;20030;-90
2022/08/24 03:30:24;;;;;;;11.10;6.32;;;;;;;;;;2082065;28;20570;-89
2022/08/24 03:31:25;;;;;;;10.73;6.60;;;;;;;;;;2081053;28;20541;-90
2022/08/24 03:32:26;;;;;;;11.15;6.20;;;;;;;;;;2081361;28;20096;-91
2022/08/24 03:33:27;;;;;;;11.38;6.32;;;;;;;;;;2081005;28;20535;-90
2022/08/24 03:34:28;;;;;;;9.82;6.25;;;;;;;;;;2081531;28;20029;-88
2022/08/24 03:35:28;;;;;;;10.98;5.68;;;;;;;;;;2080756;28;20112;-90
2022/08/24 03:36:29;;;;;;;9.57;6.38;;;;;;;;;;2080651;28;20500;-90
2022/08/24 03:37:31;;;;;;;8.82;5.20;;;;;;;;;;2080831;28;20515;-91
2022/08/24 03:38:31;;;;;;;11.65;6.40;;;;;;;;;;2071797;28;20028;-89
2022/08/24 03:39:32;;;;;;;8.45;5.25;;;;;;;;;;2080352;28;20040;-90
2022/08/24 03:40:33;;;;;;;9.88;6.03;;;;;;;;;;2080735;28;20053;-90
2022/08/24 03:41:33;;;;;;;11.02;5.70;;;;;;;;;;2080943;28;20105;-91
2022/08/24 03:42:34;;;;;;;10.40;5.85;;;;;;;;;;2081579;28;20430;-90
2022/08/24 03:43:47;;;;;;;12.10;6.18;;;;;;;;;;2081154;28;20032;-90
2022/08/24 03:44:47;;;;;;;7.03;5.22;;;;;;;;;;2080846;28;20025;-89
2022/08/24 03:45:48;;;;;;;10.07;5.15;;;;;;;;;;2072253;28;20037;-90
2022/08/24 03:46:48;;;;;;;9.38;5.35;;;;;;;;;;2080429;28;20021;-90
2022/08/24 03:47:49;;;;;;;9.60;4.88;;;;;;;;;;2081659;28;20064;-89
2022/08/24 03:48:50;;;;;;;8.98;6.20;;;;;;;;;;2081282;28;20044;-89
2022/08/24 03:49:51;;;;;;;8.55;5.40;;;;;;;;;;2080565;28;20507;-90
2022/08/24 03:50:52;;;;;;;8.23;5.68;;;;;;;;;;2072346;28;20025;-89
2022/08/24 03:51:52;;;;;;;9.55;5.57;;;;;;;;;;2072357;28;20076;-90
2022/08/24 03:52:52;;;;;;;9.60;5.28;;;;;;;;;;2072477;28;20029;-89
2022/08/24 03:53:54;;;;;;;9.85;5.10;;;;;;;;;;2072217;28;20049;-89
2022/08/24 03:54:55;;;;;;;9.68;6.00;;;;;;;;;;2072729;28;20468;-89
2022/08/24 03:55:56;;;;;;;9.18;5.70;;;;;;;;;;2072245;28;20109;-90
2022/08/24 03:56:57;;;;;;;7.90;5.30;;;;;;;;;;2072235;28;20029;-90
2022/08/24 03:57:58;;;;;;;9.57;5.63;;;;;;;;;;2088674;28;20032;-89
2022/08/24 03:58:59;;;;;;;9.32;5.88;;;;;;;;;;2096899;28;20107;-90
2022/08/24 04:00:00;;;;;;;6.82;4.88;;;;;;;;;;2081553;28;20476;-90
2022/08/24 04:01:02;;;;;;;6.47;4.53;;;;;;;;;;2080841;28;20033;-91
2022/08/24 04:02:03;;;;;;;8.48;5.18;;;;;;;;;;2080611;28;20031;-90
2022/08/24 04:03:03;;;;;;;11.15;4.93;;;;;;;;;;2080350;28;20499;-90
2022/08/24 04:04:04;;;;;;;8.75;4.95;;;;;;;;;;2080447;28;20520;-90
2022/08/24 04:05:06;;;;;;;8.75;5.00;;;;;;;;;;2080676;28;20079;-90
2022/08/24 04:06:08;;;;;;;9.57;4.90;;;;;;;;;;2072604;28;20022;-91
2022/08/24 04:07:08;;;;;;;8.40;4.70;;;;;;;;;;2072222;28;20029;-90
2022/08/24 04:08:09;;;;;;;13.32;5.40;;;;;;;;;;2072589;28;20021;-90
2022/08/24 04:09:10;;;;;;;9.27;4.68;;;;;;;;;;2088787;28;20131;-90
2022/08/24 04:10:13;;;;;;;9.55;5.25;;;;;;;;;;2088924;28;20029;-91
2022/08/24 04:11:16;;;;;;;6.90;4.78;;;;;;;;;;2072409;28;20065;-90
2022/08/24 04:12:17;;;;;;;8.55;5.15;;;;;;;;;;2080583;28;20413;-91
2022/08/24 04:13:18;;;;;;;8.57;4.80;;;;;;;;;;2080636;28;20124;-90
2022/08/24 04:14:18;;;;;;;9.05;5.15;;;;;;;;;;2072440;28;20485;-90
2022/08/24 04:15:19;;;;;;;8.85;5.00;;;;;;;;;;2072183;28;20025;-89
2022/08/24 04:16:20;;;;;;;11.30;5.13;;;;;;;;;;2088726;28;20024;-89
2022/08/24 04:17:21;;;;;;;7.82;4.90;;;;;;;;;;2088542;28;20028;-90
2022/08/24 04:18:21;;;;;;;9.23;4.50;;;;;;;;;;2072368;28;20026;-90
2022/08/24 04:19:21;;;;;;;12.38;5.10;;;;;;;;;;2080246;28;20076;-89
2022/08/24 04:20:22;;;;;;;10.82;5.50;;;;;;;;;;2088855;28;20145;-89
2022/08/24 04:21:26;;;;;;;6.50;5.10;;;;;;;;;;2080903;28;20037;-90
2022/08/24 04:22:30;;;;;;;7.25;5.10;;;;;;;;;;2085027;28;20021;-90
2022/08/24 04:23:32;;;;;;;11.63;5.38;;;;;;;;;;2074455;28;20116;-91
2022/08/24 04:24:33;;;;;;;6.97;4.72;;;;;;;;;;2072200;28;20057;-90
2022/08/24 04:25:39;;;;;;;11.88;5.28;;;;;;;;;;2080376;28;20021;-90
2022/08/24 04:26:40;;;;;;;8.02;5.38;;;;;;;;;;1726960;28;10177364;-90
2022/08/24 04:27:41;;;;;;;9.77;4.55;;;;;;;;;;2072338;28;20068;-90
2022/08/24 04:28:41;;;;;;;8.98;4.97;;;;;;;;;;2072295;28;20049;-90
2022/08/24 04:29:42;;;;;;;10.00;5.57;;;;;;;;;;2080369;28;20195;-90
2022/08/24 04:30:45;;;;;;;17.08;5.60;;;;;;;;;;2080478;28;20026;-91
2022/08/24 04:31:47;;;;;;;8.77;5.00;;;;;;;;;;2081188;28;20026;-90
2022/08/24 04:32:47;;;;;;;9.35;5.40;;;;;;;;;;2081361;28;20031;-90
2022/08/24 04:33:48;;;;;;;7.15;5.00;;;;;;;;;;2080116;28;20021;-90
2022/08/24 04:34:49;;;;;;;9.07;5.82;;;;;;;;;;2080213;28;20445;-90
2022/08/24 04:35:49;;;;;;;9.20;5.55;;;;;;;;;;2080958;28;20021;-90
2022/08/24 04:36:50;;;;;;;9.05;5.93;;;;;;;;;;2080213;28;20021;-89
2022/08/24 04:37:50;;;;;;;8.43;5.45;;;;;;;;;;2080573;28;20027;-90
2022/08/24 04:38:51;;;;;;;7.40;4.82;;;;;;;;;;2088677;28;20017;-89
2022/08/24 04:39:52;;;;;;;9.88;5.18;;;;;;;;;;2088451;28;20049;-92
2022/08/24 04:40:52;;;;;;;12.43;6.22;;;;;;;;;;2080570;28;20017;-90
2022/08/24 04:41:55;;;;;;;9.23;6.10;;;;;;;;;;2080180;28;20203;-90
2022/08/24 04:42:57;;;;;;;8.27;5.15;;;;;;;;;;2080252;28;20043;-89
2022/08/24 04:43:59;;;;;;;11.50;5.20;;;;;;;;;;2072256;28;20053;-91
2022/08/24 04:44:59;;;;;;;7.93;5.07;;;;;;;;;;2080154;28;20018;-89
2022/08/24 04:46:03;;;;;;;8.18;5.68;;;;;;;;;;2088370;28;20100;-89
2022/08/24 04:47:04;;;;;;;8.30;5.25;;;;;;;;;;2080103;28;20025;-89
2022/08/24 04:48:04;;;;;;;9.65;5.25;;;;;;;;;;2071913;28;20033;-89
2022/08/24 04:49:05;;;;;;;6.55;4.80;;;;;;;;;;2072228;28;20104;-89
2022/08/24 04:50:06;;;;;;;6.72;5.07;;;;;;;;;;2071530;28;20503;-88
2022/08/24 04:51:08;;;;;;;10.88;5.32;;;;;;;;;;2083287;28;20017;-88
2022/08/24 04:52:09;;;;;;;7.45;4.97;;;;;;;;;;2082101;28;20057;-89
2022/08/24 04:53:12;;;;;;;8.48;4.55;;;;;;;;;;1726277;28;10239804;-88
2022/08/24 04:54:12;;;;;;;9.00;4.95;;;;;;;;;;2088114;28;20027;-89
2022/08/24 04:55:13;;;;;;;7.95;5.20;;;;;;;;;;2080019;28;20128;-89
2022/08/24 04:56:20;;;;;;;9.48;5.63;;;;;;;;;;2080520;28;20555;-89
2022/08/24 04:57:20;;;;;;;7.30;4.88;;;;;;;;;;2080122;28;20052;-89
2022/08/24 04:58:20;;;;;;;8.02;4.95;;;;;;;;;;2080128;28;20030;-89
2022/08/24 04:59:21;;;;;;;7.85;5.05;;;;;;;;;;2080888;28;20509;-89
2022/08/24 05:00:22;;;;;;;8.48;5.10;;;;;;;;;;2080029;28;20559;-88
2022/08/24 05:01:25;;;;;;;6.72;4.55;;;;;;;;;;2072050;28;20489;-89
2022/08/24 05:02:26;;;;;;;5.82;4.60;;;;;;;;;;2072303;28;20080;-89
2022/08/24 05:03:27;;;;;;;8.45;5.68;;;;;;;;;;2071996;28;20453;-89
2022/08/24 05:04:27;;;;;;;7.60;5.32;;;;;;;;;;2072095;28;20401;-89
2022/08/24 05:05:28;;;;;;;9.38;4.70;;;;;;;;;;2080018;28;20527;-89
2022/08/24 05:06:31;;;;;;;9.10;4.68;;;;;;;;;;2088552;28;20025;-89
2022/08/24 05:07:31;;;;;;;8.80;4.82;;;;;;;;;;2080150;28;20117;-89
2022/08/24 05:08:32;;;;;;;10.20;5.35;;;;;;;;;;2072063;28;20029;-89
2022/08/24 05:09:33;;;;;;;6.80;4.32;;;;;;;;;;2071919;28;20034;-90
2022/08/24 05:10:33;;;;;;;7.78;4.88;;;;;;;;;;2080317;28;20033;-89
2022/08/24 05:11:36;;;;;;;9.48;4.50;;;;;;;;;;2080198;28;20153;-89
2022/08/24 05:12:37;;;;;;;8.13;4.82;;;;;;;;;;2072093;28;20109;-89
2022/08/24 05:13:37;;;;;;;6.40;4.47;;;;;;;;;;2080285;28;20369;-89
2022/08/24 05:14:37;;;;;;;8.25;4.72;;;;;;;;;;2080250;28;20018;-89
2022/08/24 05:15:44;;;;;;;8.60;4.65;;;;;;;;;;2080284;28;20025;-88
2022/08/24 05:16:44;;;;;;;7.78;4.53;;;;;;;;;;2080270;28;20156;-88
2022/08/24 05:17:44;;;;;;;6.40;4.40;;;;;;;;;;2071635;28;20165;-88
2022/08/24 05:18:45;;;;;;;9.63;5.38;;;;;;;;;;2071680;28;20021;-88
2022/08/24 05:19:46;;;;;;;6.63;4.80;;;;;;;;;;2079656;28;20083;-89
2022/08/24 05:20:46;;;;;;;8.13;4.72;;;;;;;;;;2080793;28;20042;-88
2022/08/24 05:21:47;;;;;;;9.05;4.97;;;;;;;;;;2079903;28;20033;-89
2022/08/24 05:22:51;;;;;;;6.72;4.60;;;;;;;;;;2079010;28;20021;-88
2022/08/24 05:23:51;;;;;;;7.75;4.75;;;;;;;;;;2087040;28;20126;-88
2022/08/24 05:24:53;;;;;;;7.03;4.30;;;;;;;;;;2078820;28;20053;-88
2022/08/24 05:26:09;;;;;;;11.13;5.07;;;;;;;;;;2079246;28;20029;-87
2022/08/24 05:27:09;;;;;;;8.23;4.63;;;;;;;;;;2080449;28;20030;-88
2022/08/24 05:28:10;;;;;;;10.02;4.55;;;;;;;;;;2079446;28;20117;-88
2022/08/24 05:29:10;;;;;;;8.48;5.07;;;;;;;;;;2080218;28;20052;-89
2022/08/24 05:30:11;;;;;;;6.85;4.43;;;;;;;;;;2080685;28;20507;-89
2022/08/24 05:31:20;;;;;;;9.13;5.28;;;;;;;;;;2080511;28;20025;-89
2022/08/24 05:32:21;;;;;;;8.25;4.90;;;;;;;;;;2081499;28;20088;-88
2022/08/24 05:33:21;;;;;;;7.13;4.93;;;;;;;;;;2079957;28;20029;-88
2022/08/24 05:34:23;;;;;;;6.05;4.93;;;;;;;;;;2079914;28;20107;-88
2022/08/24 05:35:23;;;;;;;8.93;4.60;;;;;;;;;;2080315;28;20029;-87
2022/08/24 05:36:30;;;;;;;8.70;4.15;;;;;;;;;;2079727;28;20025;-89
2022/08/24 05:37:34;;;;;;;6.25;3.90;;;;;;;;;;2072536;28;20014;-90
2022/08/24 05:38:35;;;;;;;7.72;4.93;;;;;;;;;;2072360;28;20041;-87
2022/08/24 05:39:35;;;;;;;7.20;5.00;;;;;;;;;;2072484;28;20026;-88
2022/08/24 05:40:36;;;;;;;6.05;4.43;;;;;;;;;;2079710;28;20049;-91
2022/08/24 05:41:37;;;;;;;7.18;4.45;;;;;;;;;;2079824;28;20163;-91
2022/08/24 05:42:48;;;;;;;5.55;4.05;;;;;;;;;;2080547;28;20036;-88
2022/08/24 05:43:48;;;;;;;8.70;4.07;;;;;;;;;;2081695;28;20128;-89
2022/08/24 05:44:49;;;;;;;6.40;3.55;;;;;;;;;;2080703;28;20597;-89
2022/08/24 05:45:49;;;;;;;5.97;4.50;;;;;;;;;;2071821;28;20018;-90
2022/08/24 05:46:50;;;;;;;8.80;3.70;;;;;;;;;;2080589;28;20404;-90
2022/08/24 05:47:50;;;;;;;9.40;4.10;;;;;;;;;;2080982;28;20061;-90
2022/08/24 05:48:51;;;;;;;5.70;4.72;;;;;;;;;;2071460;28;20022;-90
2022/08/24 05:49:52;;;;;;;5.88;3.63;;;;;;;;;;2079830;28;20088;-89
2022/08/24 05:50:54;;;;;;;4.15;3.70;;;;;;;;;;2079771;28;20025;-90
2022/08/24 05:51:54;;;;;;;5.75;3.88;;;;;;;;;;2080072;28;20029;-89
2022/08/24 05:52:55;;;;;;;6.38;4.47;;;;;;;;;;2087899;28;20025;-89
2022/08/24 05:53:56;;;;;;;8.52;4.32;;;;;;;;;;2080517;28;20025;-89
2022/08/24 05:54:58;;;;;;;6.10;4.20;;;;;;;;;;2080069;28;20031;-90
2022/08/24 05:56:03;;;;;;;6.25;4.32;;;;;;;;;;2073677;28;20380;-89
2022/08/24 05:57:05;;;;;;;5.65;3.95;;;;;;;;;;2072772;28;20158;-89
2022/08/24 05:58:05;;;;;;;7.18;4.30;;;;;;;;;;2084039;28;20049;-90
2022/08/24 05:59:06;;;;;;;5.07;3.67;;;;;;;;;;2079557;28;20033;-89
2022/08/24 06:00:09;;;;;;;6.10;4.22;;;;;;;;;;2079924;28;20029;-90
2022/08/24 06:01:13;;;;;;;5.82;3.50;;;;;;;;;;2079529;28;20036;-89
2022/08/24 06:02:14;;;;;;;7.95;4.03;;;;;;;;;;2079112;28;20089;-90
2022/08/24 06:03:17;;;;;;;7.97;3.83;;;;;;;;;;2080727;28;20498;-89
2022/08/24 06:04:18;;;;;;;6.95;3.78;;;;;;;;;;2079570;28;20025;-90
2022/08/24 06:05:19;;;;;;;8.80;4.30;;;;;;;;;;2071507;28;20041;-89
2022/08/24 06:06:21;;;;;;;4.95;4.07;;;;;;;;;;2079554;28;20033;-89
2022/08/24 06:07:21;;;;;;;6.93;3.83;;;;;;;;;;2079459;28;20034;-90
2022/08/24 06:08:22;;;;;;;6.22;3.53;;;;;;;;;;2071584;28;20022;-91
2022/08/24 06:09:27;;;;;;;4.65;3.22;;;;;;;;;;2079623;28;20026;-91
2022/08/24 06:10:28;;;;;;;4.60;3.30;;;;;;;;;;2080168;28;20033;-90
2022/08/24 06:11:35;;;;;;;4.90;3.42;;;;;;;;;;2079428;28;20033;-91
2022/08/24 06:12:35;;;;;;;5.85;3.40;;;;;;;;;;2072367;28;20025;-90